createdAt,value
2023-05-02T00:00:29.308Z,2.80
2023-05-02T00:02:55.942Z,2.40
2023-05-02T00:05:22.815Z,2.50
2023-05-02T00:07:49.660Z,2.67
2023-05-02T00:10:16.288Z,2.30
2023-05-02T00:12:42.738Z,2.23
2023-05-02T00:15:10.332Z,2.40
2023-05-02T00:17:40.372Z,2.83
2023-05-02T00:20:09.277Z,2.60
2023-05-02T00:22:35.855Z,2.57
2023-05-02T00:25:02.470Z,2.47
2023-05-02T00:27:30.601Z,2.70
2023-05-02T00:29:57.648Z,2.50
2023-05-02T00:32:24.250Z,2.57
2023-05-02T00:34:50.953Z,2.57
2023-05-02T00:37:17.390Z,2.63
2023-05-02T00:39:44.894Z,2.80
2023-05-02T00:42:11.515Z,2.43
2023-05-02T00:44:38.102Z,2.80
2023-05-02T00:47:04.857Z,3.07
2023-05-02T00:49:31.399Z,2.30
2023-05-02T00:51:58.741Z,2.57
2023-05-02T00:54:25.221Z,2.30
2023-05-02T00:56:51.760Z,2.37
2023-05-02T00:59:18.695Z,2.60
2023-05-02T01:01:45.140Z,2.33
2023-05-02T01:04:39.991Z,2.27
2023-05-02T01:07:35.811Z,3.03
2023-05-02T01:10:21.770Z,2.60
2023-05-02T01:12:59.597Z,2.40
2023-05-02T01:15:26.815Z,2.57
2023-05-02T01:17:56.345Z,2.50
2023-05-02T01:20:26.247Z,2.60
2023-05-02T01:22:56.152Z,2.60
2023-05-02T01:25:31.546Z,2.30
2023-05-02T01:28:14.542Z,2.43
2023-05-02T01:30:44.533Z,2.50
2023-05-02T01:33:15.033Z,2.70
2023-05-02T01:35:47.031Z,2.60
2023-05-02T01:38:15.941Z,2.20
2023-05-02T01:40:45.096Z,2.57
2023-05-02T01:43:16.668Z,2.20
2023-05-02T01:45:45.589Z,2.20
2023-05-02T01:48:14.457Z,2.60
2023-05-02T01:50:43.031Z,2.40
2023-05-02T01:53:13.693Z,2.70
2023-05-02T01:55:43.491Z,2.40
2023-05-02T01:58:13.992Z,2.30
2023-05-02T02:00:41.929Z,2.20
2023-05-02T02:03:10.657Z,2.40
2023-05-02T02:05:38.172Z,2.20
2023-05-02T02:08:04.904Z,2.30
2023-05-02T02:10:37.130Z,2.27
2023-05-02T02:13:16.857Z,2.33
2023-05-02T02:15:48.162Z,2.27
2023-05-02T02:18:23.419Z,2.07
2023-05-02T02:20:52.361Z,2.17
2023-05-02T02:23:23.347Z,2.50
2023-05-02T02:25:52.265Z,1.97
2023-05-02T02:28:18.805Z,2.00
2023-05-02T02:30:45.676Z,2.27
2023-05-02T02:33:12.218Z,2.33
2023-05-02T02:35:43.607Z,2.20
2023-05-02T02:38:19.388Z,2.43
2023-05-02T02:41:14.724Z,2.00
2023-05-02T02:43:53.692Z,1.97
2023-05-02T02:46:43.786Z,2.50
2023-05-02T02:49:24.364Z,2.40
2023-05-02T02:51:58.130Z,2.40
2023-05-02T02:54:49.982Z,2.23
2023-05-02T02:57:24.172Z,2.20
2023-05-02T03:00:09.024Z,1.93
2023-05-02T03:02:37.389Z,2.10
2023-05-02T03:05:05.841Z,2.17
2023-05-02T03:07:32.617Z,2.00
2023-05-02T03:10:03.778Z,2.30
2023-05-02T03:12:31.708Z,2.10
2023-05-02T03:15:09.984Z,2.50
2023-05-02T03:17:37.116Z,1.93
2023-05-02T03:20:04.686Z,2.37
2023-05-02T03:22:31.199Z,2.30
2023-05-02T03:24:59.439Z,2.20
2023-05-02T03:27:26.552Z,2.30
2023-05-02T03:29:53.289Z,2.50
2023-05-02T03:32:20.147Z,2.23
2023-05-02T03:34:46.647Z,2.60
2023-05-02T03:37:13.158Z,2.10
2023-05-02T03:39:39.673Z,2.30
2023-05-02T03:42:06.366Z,2.17
2023-05-02T03:44:32.868Z,2.10
2023-05-02T03:46:59.450Z,2.10
2023-05-02T03:49:27.204Z,2.33
2023-05-02T03:51:54.471Z,2.23
2023-05-02T03:54:27.096Z,2.10
2023-05-02T03:56:55.056Z,2.20
2023-05-02T03:59:29.426Z,2.03
2023-05-02T04:01:56.921Z,2.20
2023-05-02T04:04:32.888Z,2.10
2023-05-02T04:07:00.253Z,2.13
2023-05-02T04:09:26.994Z,2.33
2023-05-02T04:12:02.182Z,2.30
2023-05-02T04:14:29.464Z,1.90
2023-05-02T04:16:57.481Z,2.00
2023-05-02T04:19:53.118Z,2.07
2023-05-02T04:22:23.691Z,2.17
2023-05-02T04:24:54.954Z,1.80
2023-05-02T04:27:22.643Z,2.17
2023-05-02T04:29:50.079Z,2.03
2023-05-02T04:32:18.019Z,2.33
2023-05-02T04:34:45.885Z,2.23
2023-05-02T04:37:13.218Z,2.20
2023-05-02T04:39:41.320Z,2.23
2023-05-02T04:42:14.004Z,2.33
2023-05-02T04:44:48.937Z,1.83
2023-05-02T04:47:16.381Z,2.13
2023-05-02T04:49:44.573Z,2.03
2023-05-02T04:52:11.082Z,2.20
2023-05-02T04:54:37.644Z,2.20
2023-05-02T04:57:06.535Z,2.00
2023-05-02T04:59:38.304Z,2.07
2023-05-02T05:02:05.807Z,2.30
2023-05-02T05:04:32.344Z,1.93
2023-05-02T05:07:00.031Z,1.90
2023-05-02T05:09:28.220Z,2.10
2023-05-02T05:11:54.698Z,1.97
2023-05-02T05:14:21.394Z,2.10
2023-05-02T05:16:51.886Z,2.30
2023-05-02T05:19:19.062Z,1.80
2023-05-02T05:21:46.066Z,2.23
2023-05-02T05:24:15.998Z,2.17
2023-05-02T05:26:43.450Z,2.10
2023-05-02T05:29:10.051Z,2.07
2023-05-02T05:31:41.722Z,2.40
2023-05-02T05:34:09.488Z,2.17
2023-05-02T05:36:37.141Z,2.20
2023-05-02T05:39:04.215Z,2.20
2023-05-02T05:41:34.122Z,2.10
2023-05-02T05:44:05.223Z,2.23
2023-05-02T05:46:31.896Z,1.73
2023-05-02T05:49:00.061Z,2.00
2023-05-02T05:51:28.440Z,2.10
2023-05-02T05:53:57.633Z,2.30
2023-05-02T05:56:24.145Z,1.93
2023-05-02T05:58:57.825Z,1.80
2023-05-02T06:01:24.610Z,2.00
2023-05-02T06:03:52.070Z,2.10
2023-05-02T06:06:18.935Z,2.03
2023-05-02T06:08:45.509Z,2.20
2023-05-02T06:11:12.205Z,2.00
2023-05-02T06:13:38.959Z,2.00
2023-05-02T06:16:06.735Z,2.07
2023-05-02T06:18:33.334Z,1.97
2023-05-02T06:21:06.783Z,1.93
2023-05-02T06:23:33.328Z,2.20
2023-05-02T06:26:01.427Z,2.13
2023-05-02T06:28:28.399Z,2.37
2023-05-02T06:31:03.311Z,2.20
2023-05-02T06:33:30.792Z,2.13
2023-05-02T06:35:59.179Z,1.87
2023-05-02T06:38:27.100Z,1.60
2023-05-02T06:40:53.591Z,1.87
2023-05-02T06:43:20.228Z,2.30
2023-05-02T06:45:47.070Z,2.00
2023-05-02T06:48:13.645Z,2.03
2023-05-02T06:50:40.182Z,1.90
2023-05-02T06:53:07.068Z,2.03
2023-05-02T06:55:33.608Z,2.00
2023-05-02T06:58:00.530Z,2.40
2023-05-02T07:00:26.976Z,2.00
2023-05-02T07:02:53.491Z,2.20
2023-05-02T07:05:19.997Z,2.20
2023-05-02T07:07:46.497Z,1.90
2023-05-02T07:10:13.275Z,1.63
2023-05-02T07:12:39.792Z,1.80
2023-05-02T07:15:06.964Z,1.77
2023-05-02T07:17:33.684Z,1.90
2023-05-02T07:20:00.563Z,1.90
2023-05-02T07:22:27.331Z,2.00
2023-05-02T07:25:01.450Z,1.80
2023-05-02T07:27:28.117Z,2.20
2023-05-02T07:29:54.633Z,1.90
2023-05-02T07:32:26.204Z,2.33
2023-05-02T07:34:56.934Z,1.93
2023-05-02T07:37:23.434Z,1.80
2023-05-02T07:39:50.036Z,1.90
2023-05-02T07:42:16.552Z,1.73
2023-05-02T07:44:43.319Z,2.00
2023-05-02T07:47:09.961Z,2.07
2023-05-02T07:49:36.868Z,2.00
2023-05-02T07:52:04.469Z,2.40
2023-05-02T07:54:30.931Z,1.90
2023-05-02T07:57:01.989Z,2.10
2023-05-02T07:59:29.763Z,2.03
2023-05-02T08:01:56.213Z,1.97
2023-05-02T08:04:22.861Z,1.80
2023-05-02T08:06:49.494Z,2.20
2023-05-02T08:09:16.009Z,2.10
2023-05-02T08:11:42.663Z,1.73
2023-05-02T08:14:09.128Z,1.87
2023-05-02T08:16:35.674Z,1.90
2023-05-02T08:19:02.392Z,2.07
2023-05-02T08:21:29.267Z,1.83
2023-05-02T08:23:58.645Z,1.70
2023-05-02T08:26:25.583Z,2.03
2023-05-02T08:28:52.173Z,1.97
2023-05-02T08:31:19.055Z,1.70
2023-05-02T08:33:45.669Z,1.93
2023-05-02T08:36:16.301Z,1.63
2023-05-02T08:38:43.746Z,1.63
2023-05-02T08:41:18.440Z,1.80
2023-05-02T08:43:45.901Z,1.93
2023-05-02T08:46:13.890Z,1.80
2023-05-02T08:48:42.352Z,1.90
2023-05-02T08:51:11.341Z,1.90
2023-05-02T08:53:39.417Z,1.70
2023-05-02T08:56:10.725Z,1.80
2023-05-02T08:58:39.050Z,1.80
2023-05-02T09:01:28.536Z,1.40
2023-05-02T09:03:57.443Z,1.77
2023-05-02T09:06:24.033Z,1.70
2023-05-02T09:08:54.899Z,1.80
2023-05-02T09:11:21.626Z,2.13
2023-05-02T09:13:52.321Z,1.63
2023-05-02T09:16:26.982Z,2.00
2023-05-02T09:18:55.284Z,1.83
2023-05-02T09:21:23.713Z,1.93
2023-05-02T09:23:59.039Z,1.73
2023-05-02T09:26:33.180Z,2.00
2023-05-02T09:29:04.590Z,1.90
2023-05-02T09:34:15.177Z,2.00
2023-05-02T09:36:54.090Z,1.97
2023-05-02T09:39:25.924Z,1.90
2023-05-02T09:41:52.888Z,2.07
2023-05-02T09:44:22.653Z,1.60
2023-05-02T09:46:50.827Z,1.70
2023-05-02T09:49:21.040Z,1.53
2023-05-02T09:51:48.451Z,1.60
2023-05-02T09:54:37.012Z,1.70
2023-05-02T09:57:04.535Z,1.67
2023-05-02T09:59:31.127Z,1.60
2023-05-02T10:02:02.482Z,1.50
2023-05-02T10:04:31.939Z,1.40
2023-05-02T10:06:59.097Z,1.80
2023-05-02T10:09:26.714Z,1.60
2023-05-02T10:11:54.556Z,1.73
2023-05-02T10:14:22.641Z,1.50
2023-05-02T10:16:58.580Z,1.60
2023-05-02T10:19:37.985Z,1.90
2023-05-02T10:22:04.997Z,1.53
2023-05-02T10:24:34.579Z,1.70
2023-05-02T10:27:02.347Z,1.83
2023-05-02T10:29:29.524Z,1.67
2023-05-02T10:31:58.453Z,1.80
2023-05-02T10:34:25.874Z,1.67
2023-05-02T10:36:52.293Z,1.60
2023-05-02T10:39:24.235Z,1.80
2023-05-02T10:41:55.052Z,1.60
2023-05-02T10:44:35.266Z,1.70
2023-05-02T10:47:02.117Z,1.83
2023-05-02T10:49:29.758Z,1.93
2023-05-02T10:51:56.226Z,1.80
2023-05-02T10:54:26.112Z,2.00
2023-05-02T10:57:06.324Z,1.40
2023-05-02T10:59:41.197Z,1.70
2023-05-02T11:02:28.023Z,1.63
2023-05-02T11:05:07.556Z,1.90
2023-05-02T11:07:35.869Z,1.60
2023-05-02T11:10:17.602Z,1.60
2023-05-02T11:12:48.783Z,1.70
2023-05-02T11:15:37.557Z,1.37
2023-05-02T11:18:14.350Z,1.87
2023-05-02T11:20:42.346Z,1.70
2023-05-02T11:23:15.277Z,1.77
2023-05-02T11:25:43.675Z,1.93
2023-05-02T11:28:58.317Z,1.63
2023-05-02T11:31:27.515Z,1.63
2023-05-02T11:34:01.959Z,1.50
2023-05-02T11:36:30.318Z,1.53
2023-05-02T11:38:56.741Z,1.70
2023-05-02T11:41:23.344Z,1.60
2023-05-02T11:44:03.649Z,1.60
2023-05-02T11:46:30.872Z,1.57
2023-05-02T11:48:57.716Z,1.60
2023-05-02T11:51:24.291Z,1.90
2023-05-02T11:53:50.670Z,1.80
2023-05-02T11:56:24.657Z,1.37
2023-05-02T11:59:01.580Z,1.93
2023-05-02T12:01:28.263Z,1.70
2023-05-02T12:04:08.270Z,1.70
2023-05-02T12:06:35.442Z,1.70
2023-05-02T12:09:10.182Z,1.70
2023-05-02T12:11:38.258Z,1.50
2023-05-02T12:14:06.347Z,1.43
2023-05-02T12:16:33.004Z,1.47
2023-05-02T12:19:01.010Z,1.97
2023-05-02T12:21:29.750Z,1.57
2023-05-02T12:23:57.097Z,1.70
2023-05-02T12:26:30.795Z,1.50
2023-05-02T12:28:58.877Z,1.83
2023-05-02T12:31:27.234Z,1.67
2023-05-02T12:33:57.332Z,1.63
2023-05-02T12:36:24.356Z,1.50
2023-05-02T12:38:59.268Z,1.70
2023-05-02T12:41:33.855Z,1.63
2023-05-02T12:44:01.430Z,1.80
2023-05-02T12:46:31.670Z,1.50
2023-05-02T12:49:09.509Z,1.43
2023-05-02T12:51:36.885Z,1.30
2023-05-02T12:54:04.366Z,1.50
2023-05-02T12:56:38.314Z,1.40
2023-05-02T12:59:05.693Z,1.70
2023-05-02T13:01:35.482Z,1.83
2023-05-02T13:04:02.397Z,1.90
2023-05-02T13:06:28.939Z,1.53
2023-05-02T13:08:55.450Z,1.50
2023-05-02T13:11:21.878Z,1.43
2023-05-02T13:13:48.339Z,1.87
2023-05-02T13:16:14.811Z,1.40
2023-05-02T13:18:41.459Z,1.60
2023-05-02T13:21:07.938Z,1.40
2023-05-02T13:23:34.421Z,1.77
2023-05-02T13:26:00.831Z,1.40
2023-05-02T13:28:29.030Z,1.53
2023-05-02T13:30:55.532Z,1.70
2023-05-02T13:33:22.070Z,1.27
2023-05-02T13:35:48.471Z,1.50
2023-05-02T13:38:14.958Z,1.60
2023-05-02T13:40:41.453Z,1.40
2023-05-02T13:43:07.926Z,1.63
2023-05-02T13:45:34.490Z,1.70
2023-05-02T13:48:01.000Z,1.60
2023-05-02T13:50:27.442Z,1.50
2023-05-02T13:52:53.922Z,1.60
2023-05-02T13:55:20.454Z,1.70
2023-05-02T13:57:46.971Z,1.80
2023-05-02T14:00:14.093Z,1.60
2023-05-02T14:02:40.767Z,1.50
2023-05-02T14:05:07.858Z,1.57
2023-05-02T14:07:34.315Z,1.60
2023-05-02T14:10:01.037Z,1.30
2023-05-02T14:12:28.290Z,1.30
2023-05-02T14:14:54.703Z,1.30
2023-05-02T14:17:21.648Z,1.50
2023-05-02T14:19:48.172Z,1.30
2023-05-02T14:22:14.669Z,1.67
2023-05-02T14:24:41.184Z,1.60
2023-05-02T14:27:12.745Z,1.50
2023-05-02T14:29:39.929Z,1.77
2023-05-02T14:32:06.469Z,1.70
2023-05-02T14:34:32.939Z,1.47
2023-05-02T14:36:59.426Z,1.40
2023-05-02T14:39:27.423Z,1.33
2023-05-02T14:41:53.918Z,1.47
2023-05-02T14:44:20.520Z,1.60
2023-05-02T14:46:46.996Z,1.40
2023-05-02T14:49:13.583Z,1.30
2023-05-02T14:51:40.293Z,1.50
2023-05-02T14:54:07.048Z,1.50
2023-05-02T14:56:33.634Z,1.60
2023-05-02T14:59:00.084Z,1.60
2023-05-02T15:01:26.756Z,1.20
2023-05-02T15:04:05.922Z,1.50
2023-05-02T15:06:35.630Z,1.50
2023-05-02T15:09:02.718Z,1.50
2023-05-02T15:11:29.149Z,1.37
2023-05-02T15:13:58.411Z,1.50
2023-05-02T15:16:26.996Z,1.70
2023-05-02T15:18:54.264Z,1.20
2023-05-02T15:21:21.701Z,1.20
2023-05-02T15:23:50.078Z,1.30
2023-05-02T15:26:17.726Z,1.43
2023-05-02T15:28:46.050Z,1.53
2023-05-02T15:31:14.218Z,1.40
2023-05-02T15:33:41.203Z,1.40
2023-05-02T15:36:08.358Z,7.97
2023-05-02T15:38:44.439Z,14.97
2023-05-02T15:41:13.308Z,20.63
2023-05-02T15:43:39.924Z,23.27
2023-05-02T15:46:06.500Z,27.53
2023-05-02T15:48:33.479Z,42.67
2023-05-02T15:51:00.069Z,60.80
2023-05-02T15:53:26.532Z,62.80
2023-05-02T15:55:53.302Z,55.87
2023-05-02T15:58:20.269Z,48.20
2023-05-02T16:00:51.832Z,50.13
2023-05-02T16:03:18.625Z,47.50
2023-05-02T16:05:45.222Z,43.83
2023-05-02T16:08:11.723Z,41.93
2023-05-02T16:10:40.217Z,42.67
2023-05-02T16:13:06.721Z,39.60
2023-05-02T16:15:33.302Z,39.60
2023-05-02T16:17:59.906Z,38.57
2023-05-02T16:20:27.672Z,81.00
2023-05-02T16:22:54.380Z,73.47
2023-05-02T16:25:21.472Z,64.27
2023-05-02T16:27:47.946Z,60.47
2023-05-02T16:30:14.600Z,54.93
2023-05-02T16:32:41.238Z,52.07
2023-05-02T16:35:10.663Z,54.67
2023-05-02T16:37:37.320Z,51.17
2023-05-02T16:40:05.436Z,50.43
2023-05-02T16:42:32.610Z,47.30
2023-05-02T16:44:59.189Z,45.07
2023-05-02T16:47:26.792Z,45.67
2023-05-02T16:49:57.681Z,45.63
2023-05-02T16:52:25.197Z,43.83
2023-05-02T16:54:51.894Z,42.40
2023-05-02T16:57:19.917Z,39.90
2023-05-02T16:59:51.555Z,38.97
2023-05-02T17:02:22.227Z,36.60
2023-05-02T17:04:49.822Z,34.60
2023-05-02T17:07:16.816Z,35.00
2023-05-02T17:09:44.474Z,32.97
2023-05-02T17:12:12.354Z,70.67
2023-05-02T17:14:42.158Z,64.73
2023-05-02T17:17:09.664Z,63.30
2023-05-02T17:19:36.625Z,66.73
2023-05-02T17:22:04.933Z,63.27
2023-05-02T17:24:31.806Z,58.63
2023-05-02T17:26:58.574Z,56.60
2023-05-02T17:29:25.624Z,53.53
2023-05-02T17:31:52.195Z,53.27
2023-05-02T17:34:18.650Z,51.10
2023-05-02T17:36:46.268Z,50.63
2023-05-02T17:39:13.406Z,50.77
2023-05-02T17:41:40.039Z,48.53
2023-05-02T17:44:06.586Z,47.87
2023-05-02T17:46:33.388Z,46.00
2023-05-02T17:49:00.822Z,45.73
2023-05-02T17:51:27.890Z,42.57
2023-05-02T17:53:54.372Z,40.30
2023-05-02T17:56:21.211Z,39.93
2023-05-02T17:58:47.966Z,37.87
2023-05-02T18:01:14.577Z,37.67
2023-05-02T18:03:41.726Z,37.83
2023-05-02T18:06:09.017Z,34.90
2023-05-02T18:08:35.739Z,34.20
2023-05-02T18:11:03.363Z,33.40
2023-05-02T18:13:30.069Z,31.00
2023-05-02T18:15:57.509Z,31.27
2023-05-02T18:18:24.132Z,30.40
2023-05-02T18:20:50.611Z,29.30
2023-05-02T18:23:17.057Z,29.33
2023-05-02T18:25:44.024Z,26.93
2023-05-02T18:28:10.477Z,28.37
2023-05-02T18:30:37.796Z,27.43
2023-05-02T18:33:05.125Z,24.73
2023-05-02T18:35:31.683Z,23.57
2023-05-02T18:37:58.158Z,24.00
2023-05-02T18:40:24.660Z,23.90
2023-05-02T18:42:51.484Z,22.50
2023-05-02T18:45:18.467Z,21.60
2023-05-02T18:47:44.948Z,22.90
2023-05-02T18:50:11.502Z,21.30
2023-05-02T18:52:37.934Z,21.17
2023-05-02T18:55:06.068Z,20.30
2023-05-02T18:57:33.789Z,20.37
2023-05-02T19:00:00.989Z,18.97
2023-05-02T19:02:28.112Z,19.17
2023-05-02T19:04:55.170Z,19.10
2023-05-02T19:07:21.653Z,18.23
2023-05-02T19:09:48.216Z,18.33
2023-05-02T19:12:14.663Z,16.27
2023-05-02T19:14:41.163Z,17.20
2023-05-02T19:17:07.647Z,16.37
2023-05-02T19:19:34.177Z,15.87
2023-05-02T19:22:01.001Z,15.80
2023-05-02T19:24:27.814Z,15.23
2023-05-02T19:26:54.358Z,16.00
2023-05-02T19:29:20.955Z,14.80
2023-05-02T19:31:47.435Z,14.63
2023-05-02T19:34:13.924Z,14.27
2023-05-02T19:36:40.520Z,14.87
2023-05-02T19:39:07.719Z,13.43
2023-05-02T19:41:34.732Z,13.30
2023-05-02T19:44:01.226Z,14.13
2023-05-02T19:46:30.016Z,12.80
2023-05-02T19:48:56.494Z,12.53
2023-05-02T19:51:25.594Z,56.37
2023-05-02T19:53:58.348Z,39.13
2023-05-02T19:56:25.733Z,30.50
2023-05-02T19:58:53.096Z,27.53
2023-05-02T20:01:19.961Z,30.40
2023-05-02T20:03:46.846Z,30.13
2023-05-02T20:06:13.416Z,27.80
2023-05-02T20:08:39.936Z,27.93
2023-05-02T20:11:06.391Z,27.80
2023-05-02T20:13:32.836Z,27.73
2023-05-02T20:15:59.350Z,25.57
2023-05-02T20:18:25.928Z,24.17
2023-05-02T20:20:52.401Z,23.53
2023-05-02T20:23:18.951Z,23.70
2023-05-02T20:25:45.566Z,22.30
2023-05-02T20:28:12.054Z,22.20
2023-05-02T20:30:42.734Z,22.40
2023-05-02T20:33:15.414Z,20.90
2023-05-02T20:35:42.567Z,20.67
2023-05-02T20:38:09.810Z,19.77
2023-05-02T20:40:40.703Z,18.90
2023-05-02T20:43:07.756Z,18.03
2023-05-02T20:45:34.237Z,17.53
2023-05-02T20:48:00.826Z,17.20
2023-05-02T20:50:28.274Z,16.60
2023-05-02T20:52:55.224Z,16.50
2023-05-02T20:55:22.923Z,16.03
2023-05-02T20:57:52.980Z,15.33
2023-05-02T21:00:22.352Z,15.30
2023-05-02T21:02:49.322Z,13.97
2023-05-02T21:05:16.053Z,13.60
2023-05-02T21:07:42.505Z,13.77
2023-05-02T21:10:10.743Z,13.20
2023-05-02T21:12:37.226Z,12.47
2023-05-02T21:15:04.170Z,13.37
2023-05-02T21:17:30.885Z,10.77
2023-05-02T21:19:57.396Z,10.67
2023-05-02T21:22:23.811Z,13.10
2023-05-02T21:24:50.800Z,11.10
2023-05-02T21:27:17.281Z,10.30
2023-05-02T21:29:43.804Z,10.97
2023-05-02T21:32:10.612Z,9.70
2023-05-02T21:34:37.272Z,9.53
2023-05-02T21:37:03.898Z,8.90
2023-05-02T21:39:30.383Z,9.10
2023-05-02T21:41:56.873Z,9.50
2023-05-02T21:44:23.333Z,9.50
2023-05-02T21:46:51.020Z,8.73
2023-05-02T21:49:18.552Z,9.37
2023-05-02T21:51:45.011Z,8.63
2023-05-02T21:54:11.646Z,8.23
2023-05-02T21:56:38.129Z,9.30
2023-05-02T21:59:04.611Z,8.70
2023-05-02T22:01:31.134Z,7.20
2023-05-02T22:03:57.935Z,7.60
2023-05-02T22:06:24.967Z,7.10
2023-05-02T22:08:51.861Z,6.70
2023-05-02T22:11:18.475Z,6.50
2023-05-02T22:13:44.960Z,7.07
2023-05-02T22:16:11.900Z,6.70
2023-05-02T22:18:38.424Z,7.47
2023-05-02T22:21:04.924Z,7.00
2023-05-02T22:23:31.478Z,6.10
2023-05-02T22:25:58.523Z,6.47
2023-05-02T22:28:25.045Z,6.20
2023-05-02T22:30:51.518Z,5.37
2023-05-02T22:33:18.037Z,6.80
2023-05-02T22:35:44.459Z,6.10
2023-05-02T22:38:16.396Z,5.40
2023-05-02T22:40:43.036Z,6.20
2023-05-02T22:43:09.510Z,5.60
2023-05-02T22:45:36.612Z,4.67
2023-05-02T22:48:03.263Z,5.10
2023-05-02T22:50:29.977Z,5.77
2023-05-02T22:52:56.933Z,5.93
2023-05-02T22:55:23.597Z,5.20
2023-05-02T22:57:50.056Z,4.83
2023-05-02T23:00:16.954Z,5.40
2023-05-02T23:02:43.481Z,4.67
2023-05-02T23:05:10.051Z,5.20
2023-05-02T23:07:36.504Z,4.80
2023-05-02T23:10:03.270Z,4.80
2023-05-02T23:12:30.038Z,4.90
2023-05-02T23:14:56.854Z,4.30
2023-05-02T23:17:23.483Z,4.10
2023-05-02T23:19:50.369Z,4.40
2023-05-02T23:22:16.976Z,4.10
2023-05-02T23:24:46.278Z,4.87
2023-05-02T23:27:12.773Z,3.90
2023-05-02T23:29:39.188Z,3.90
2023-05-02T23:32:07.975Z,4.00
2023-05-02T23:34:36.507Z,4.60
2023-05-02T23:37:05.714Z,3.63
2023-05-02T23:39:32.741Z,3.80
2023-05-02T23:42:00.582Z,3.90
2023-05-02T23:44:27.034Z,3.83
2023-05-02T23:46:53.590Z,3.90
2023-05-02T23:49:21.216Z,3.97
2023-05-02T23:51:47.708Z,3.63
2023-05-02T23:54:14.440Z,3.43
2023-05-02T23:56:40.864Z,3.80
2023-05-02T23:59:07.385Z,3.23
